createdAt,value
2023-05-10T00:00:57.379Z,47.53
2023-05-10T00:03:24.699Z,47.70
2023-05-10T00:05:51.797Z,50.40
2023-05-10T00:08:18.784Z,48.35
2023-05-10T00:10:45.769Z,47.13
2023-05-10T00:13:13.080Z,48.58
2023-05-10T00:15:40.064Z,47.72
2023-05-10T00:18:07.436Z,50.75
2023-05-10T00:20:34.556Z,48.70
2023-05-10T00:23:01.856Z,48.22
2023-05-10T00:25:28.858Z,47.75
2023-05-10T00:27:58.562Z,46.60
2023-05-10T00:30:25.839Z,46.17
2023-05-10T00:32:53.261Z,47.85
2023-05-10T00:35:20.460Z,46.22
2023-05-10T00:37:47.490Z,46.40
2023-05-10T00:40:16.222Z,48.38
2023-05-10T00:42:43.527Z,47.15
2023-05-10T00:45:10.851Z,47.33
2023-05-10T00:47:37.920Z,47.97
2023-05-10T00:50:06.497Z,49.63
2023-05-10T00:52:33.708Z,48.28
2023-05-10T00:55:01.508Z,51.13
2023-05-10T00:57:28.664Z,49.40
2023-05-10T00:59:55.716Z,50.08
2023-05-10T01:02:22.907Z,48.75
2023-05-10T01:04:51.056Z,50.50
2023-05-10T01:07:18.130Z,51.03
2023-05-10T01:09:45.302Z,52.13
2023-05-10T01:12:12.863Z,49.28
2023-05-10T01:14:40.165Z,51.55
2023-05-10T01:17:08.796Z,47.33
2023-05-10T01:19:36.563Z,49.72
2023-05-10T01:22:37.153Z,49.78
2023-05-10T01:25:05.465Z,49.50
2023-05-10T01:27:50.943Z,48.20
2023-05-10T01:30:36.394Z,47.03
2023-05-10T01:33:26.244Z,46.38
2023-05-10T01:36:01.636Z,44.53
2023-05-10T01:38:52.893Z,43.08
2023-05-10T01:41:31.950Z,43.72
2023-05-10T01:44:21.771Z,43.30
2023-05-10T01:46:54.421Z,42.95
2023-05-10T01:49:31.985Z,42.10
2023-05-10T01:52:08.108Z,41.03
2023-05-10T01:54:36.743Z,41.20
2023-05-10T01:57:10.050Z,42.47
2023-05-10T01:59:42.852Z,41.72
2023-05-10T02:02:15.098Z,40.97
2023-05-10T02:04:43.227Z,39.42
2023-05-10T02:07:11.821Z,39.67
2023-05-10T02:09:39.812Z,38.25
2023-05-10T02:12:09.147Z,37.38
2023-05-10T02:14:38.177Z,36.30
2023-05-10T02:17:07.117Z,36.08
2023-05-10T02:19:37.210Z,36.83
2023-05-10T02:22:05.448Z,35.80
2023-05-10T02:24:34.887Z,35.85
2023-05-10T02:27:04.668Z,35.25
2023-05-10T02:29:33.645Z,34.63
2023-05-10T02:32:02.010Z,33.83
2023-05-10T02:34:30.131Z,33.47
2023-05-10T02:36:58.282Z,33.38
2023-05-10T02:39:27.702Z,33.67
2023-05-10T02:41:56.369Z,33.67
2023-05-10T02:44:24.960Z,33.65
2023-05-10T02:46:52.375Z,33.63
2023-05-10T02:49:20.016Z,33.78
2023-05-10T02:51:52.710Z,34.00
2023-05-10T02:54:32.956Z,32.83
2023-05-10T02:57:04.020Z,32.80
2023-05-10T02:59:31.042Z,31.13
2023-05-10T03:01:58.094Z,30.65
2023-05-10T03:04:25.537Z,29.23
2023-05-10T03:06:52.832Z,30.48
2023-05-10T03:09:20.993Z,30.27
2023-05-10T03:12:16.924Z,29.35
2023-05-10T03:15:04.705Z,28.92
2023-05-10T03:17:42.766Z,29.77
2023-05-10T03:20:20.238Z,29.58
2023-05-10T03:22:52.038Z,29.88
2023-05-10T03:25:22.034Z,29.73
2023-05-10T03:27:49.787Z,29.77
2023-05-10T03:30:18.187Z,29.40
2023-05-10T03:32:45.556Z,29.90
2023-05-10T03:35:16.882Z,30.02
2023-05-10T03:37:44.119Z,29.73
2023-05-10T03:40:13.249Z,30.23
2023-05-10T03:42:40.387Z,30.05
2023-05-10T03:45:08.384Z,31.15
2023-05-10T03:47:36.480Z,30.50
2023-05-10T03:50:03.579Z,29.90
2023-05-10T03:52:30.654Z,29.80
2023-05-10T03:54:57.704Z,29.55
2023-05-10T03:57:25.123Z,29.05
2023-05-10T03:59:52.092Z,29.73
2023-05-10T04:02:20.943Z,29.05
2023-05-10T04:04:48.059Z,28.13
2023-05-10T04:07:15.341Z,30.33
2023-05-10T04:09:42.367Z,29.77
2023-05-10T04:12:10.858Z,29.70
2023-05-10T04:14:38.386Z,28.98
2023-05-10T04:17:05.604Z,28.50
2023-05-10T04:19:33.061Z,27.45
2023-05-10T04:22:00.826Z,28.15
2023-05-10T04:24:27.879Z,28.90
2023-05-10T04:26:57.794Z,27.85
2023-05-10T04:29:25.191Z,29.00
2023-05-10T04:31:52.205Z,28.40
2023-05-10T04:34:20.090Z,28.20
2023-05-10T04:36:48.614Z,28.30
2023-05-10T04:39:15.600Z,28.23
2023-05-10T04:41:42.721Z,28.52
2023-05-10T04:44:11.459Z,28.45
2023-05-10T04:46:38.747Z,28.70
2023-05-10T04:49:05.843Z,29.13
2023-05-10T04:51:33.381Z,28.02
2023-05-10T04:54:06.202Z,27.92
2023-05-10T04:56:34.135Z,26.73
2023-05-10T04:59:01.473Z,26.38
2023-05-10T05:01:28.666Z,26.02
2023-05-10T05:03:57.332Z,25.80
2023-05-10T05:06:26.055Z,25.77
2023-05-10T05:08:54.352Z,25.55
2023-05-10T05:11:22.157Z,25.63
2023-05-10T05:13:49.236Z,25.33
2023-05-10T05:16:16.336Z,25.15
2023-05-10T05:18:45.128Z,24.88
2023-05-10T05:21:19.748Z,25.25
2023-05-10T05:23:47.404Z,24.80
2023-05-10T05:26:14.536Z,25.67
2023-05-10T05:28:41.553Z,25.63
2023-05-10T05:31:09.136Z,26.35
2023-05-10T05:33:36.481Z,28.92
2023-05-10T05:36:05.139Z,26.20
2023-05-10T05:38:32.430Z,26.58
2023-05-10T05:41:01.787Z,25.92
2023-05-10T05:43:28.864Z,25.52
2023-05-10T05:45:56.468Z,26.70
2023-05-10T05:48:24.740Z,27.08
2023-05-10T05:50:55.039Z,28.13
2023-05-10T05:53:22.528Z,26.98
2023-05-10T05:55:57.435Z,28.08
2023-05-10T05:58:25.048Z,26.63
2023-05-10T06:00:55.774Z,26.08
2023-05-10T06:03:23.188Z,26.23
2023-05-10T06:05:50.369Z,25.17
2023-05-10T06:08:17.456Z,24.17
2023-05-10T06:10:46.596Z,26.65
2023-05-10T06:13:14.022Z,22.33
2023-05-10T06:15:41.430Z,22.48
2023-05-10T06:18:08.674Z,25.88
2023-05-10T06:20:37.210Z,24.13
2023-05-10T06:23:04.555Z,22.35
2023-05-10T06:25:32.642Z,22.00
2023-05-10T06:27:59.822Z,22.00
2023-05-10T06:30:30.466Z,21.40
2023-05-10T06:32:58.197Z,21.52
2023-05-10T06:35:25.697Z,21.65
2023-05-10T06:37:52.900Z,22.17
2023-05-10T06:40:20.590Z,21.88
2023-05-10T06:42:49.812Z,22.02
2023-05-10T06:45:17.815Z,21.15
2023-05-10T06:47:47.121Z,22.05
2023-05-10T06:50:14.365Z,21.60
2023-05-10T06:52:41.847Z,20.70
2023-05-10T06:55:09.932Z,22.20
2023-05-10T06:57:38.334Z,22.85
2023-05-10T07:00:06.252Z,23.30
2023-05-10T07:02:33.939Z,24.73
2023-05-10T07:05:15.464Z,24.48
2023-05-10T07:07:43.467Z,23.58
2023-05-10T07:10:12.037Z,22.35
2023-05-10T07:12:39.702Z,22.88
2023-05-10T07:15:07.645Z,21.40
2023-05-10T07:17:35.050Z,20.45
2023-05-10T07:20:02.782Z,20.25
2023-05-10T07:22:29.734Z,19.70
2023-05-10T07:24:57.084Z,18.83
2023-05-10T07:27:24.482Z,17.90
2023-05-10T07:29:53.054Z,18.45
2023-05-10T07:32:22.804Z,18.27
2023-05-10T07:34:49.968Z,18.67
2023-05-10T07:37:16.905Z,18.52
2023-05-10T07:39:43.895Z,18.88
2023-05-10T07:42:12.859Z,18.98
2023-05-10T07:44:40.007Z,18.67
2023-05-10T07:47:07.238Z,18.67
2023-05-10T07:49:35.248Z,18.95
2023-05-10T07:52:03.983Z,18.65
2023-05-10T07:54:31.364Z,18.58
2023-05-10T07:56:58.502Z,18.58
2023-05-10T07:59:25.607Z,18.15
2023-05-10T08:01:52.648Z,17.88
2023-05-10T08:04:19.708Z,17.67
2023-05-10T08:06:46.769Z,17.73
2023-05-10T08:09:14.724Z,18.35
2023-05-10T08:11:42.126Z,17.92
2023-05-10T08:14:09.154Z,18.10
2023-05-10T08:16:36.478Z,18.48
2023-05-10T08:19:03.690Z,18.02
2023-05-10T08:21:32.286Z,18.70
2023-05-10T08:23:59.310Z,18.25
2023-05-10T08:26:27.110Z,17.75
2023-05-10T08:28:56.568Z,17.90
2023-05-10T08:31:24.840Z,18.08
2023-05-10T08:33:53.853Z,18.40
2023-05-10T08:36:22.992Z,18.73
2023-05-10T08:38:53.436Z,19.13
2023-05-10T08:41:27.514Z,18.63
2023-05-10T08:43:55.465Z,19.40
2023-05-10T08:46:24.383Z,22.30
2023-05-10T08:48:53.335Z,21.65
2023-05-10T08:51:26.787Z,21.40
2023-05-10T08:53:54.181Z,21.15
2023-05-10T08:56:22.125Z,19.80
2023-05-10T08:58:50.137Z,20.08
2023-05-10T09:01:19.485Z,18.70
2023-05-10T09:03:49.020Z,18.15
2023-05-10T09:06:16.845Z,17.67
2023-05-10T09:08:44.737Z,18.38
2023-05-10T09:11:14.690Z,17.80
2023-05-10T09:13:42.980Z,17.70
2023-05-10T09:16:21.389Z,17.83
2023-05-10T09:18:50.693Z,17.83
2023-05-10T09:21:18.238Z,18.20
2023-05-10T09:23:51.390Z,17.95
2023-05-10T09:26:22.959Z,17.95
2023-05-10T09:28:55.805Z,18.50
2023-05-10T09:31:23.242Z,18.48
2023-05-10T09:33:52.007Z,17.65
2023-05-10T09:36:20.236Z,17.95
2023-05-10T09:38:53.024Z,17.65
2023-05-10T09:41:22.116Z,19.02
2023-05-10T09:43:49.841Z,17.05
2023-05-10T09:46:17.669Z,17.38
2023-05-10T09:48:47.053Z,17.63
2023-05-10T09:51:21.652Z,17.50
2023-05-10T09:53:51.620Z,17.23
2023-05-10T09:56:38.707Z,16.95
2023-05-10T09:59:08.192Z,17.15
2023-05-10T10:01:37.112Z,16.98
2023-05-10T10:04:06.932Z,16.27
2023-05-10T10:06:38.921Z,16.77
2023-05-10T10:09:07.461Z,16.92
2023-05-10T10:11:39.022Z,16.98
2023-05-10T10:14:06.883Z,17.00
2023-05-10T10:16:34.307Z,16.90
2023-05-10T10:19:02.329Z,17.30
2023-05-10T10:21:29.940Z,17.40
2023-05-10T10:23:57.289Z,17.25
2023-05-10T10:26:25.047Z,17.35
2023-05-10T10:29:27.796Z,17.98
2023-05-10T10:32:31.209Z,18.15
2023-05-10T10:35:00.208Z,18.52
2023-05-10T10:37:46.496Z,18.58
2023-05-10T10:40:27.818Z,18.25
2023-05-10T10:42:55.734Z,18.08
2023-05-10T10:45:24.050Z,18.20
2023-05-10T10:48:25.001Z,18.13
2023-05-10T10:50:59.202Z,18.08
2023-05-10T10:56:22.901Z,18.25
2023-05-10T10:58:55.356Z,18.33
2023-05-10T11:01:22.523Z,17.52
2023-05-10T11:04:02.032Z,17.77
2023-05-10T11:06:37.160Z,17.88
2023-05-10T11:09:12.748Z,18.13
2023-05-10T11:12:00.547Z,18.02
2023-05-10T11:14:28.140Z,17.85
2023-05-10T11:16:55.358Z,18.42
2023-05-10T11:19:22.441Z,18.50
2023-05-10T11:21:50.737Z,17.85
2023-05-10T11:24:21.794Z,18.35
2023-05-10T11:26:51.574Z,18.80
2023-05-10T11:29:19.158Z,18.83
2023-05-10T11:31:48.687Z,18.10
2023-05-10T11:34:29.348Z,18.58
2023-05-10T11:36:57.366Z,19.88
2023-05-10T11:39:29.236Z,20.05
2023-05-10T11:41:56.689Z,20.83
2023-05-10T11:44:30.280Z,21.30
2023-05-10T11:47:02.941Z,18.80
2023-05-10T11:49:31.485Z,18.55
2023-05-10T11:52:12.530Z,18.48
2023-05-10T11:54:46.119Z,18.50
2023-05-10T11:57:13.196Z,18.33
2023-05-10T11:59:41.727Z,19.00
2023-05-10T12:02:10.117Z,18.35
2023-05-10T12:04:37.372Z,17.50
2023-05-10T12:07:04.612Z,17.25
2023-05-10T12:09:43.199Z,17.60
2023-05-10T12:12:11.301Z,17.33
2023-05-10T12:14:38.343Z,16.67
2023-05-10T12:17:05.829Z,17.00
2023-05-10T12:19:40.056Z,16.85
2023-05-10T12:22:07.881Z,17.40
2023-05-10T12:24:39.388Z,17.25
2023-05-10T12:27:09.347Z,17.15
2023-05-10T12:29:36.706Z,16.45
2023-05-10T12:32:03.846Z,17.65
2023-05-10T12:34:37.459Z,17.48
2023-05-10T12:37:04.677Z,17.33
2023-05-10T12:39:45.959Z,16.90
2023-05-10T12:42:13.157Z,16.95
2023-05-10T12:44:42.033Z,17.42
2023-05-10T12:47:09.243Z,20.17
2023-05-10T12:49:36.646Z,18.27
2023-05-10T12:52:03.701Z,18.33
2023-05-10T12:54:30.777Z,18.98
2023-05-10T12:56:58.979Z,18.13
2023-05-10T12:59:26.034Z,18.77
2023-05-10T13:01:53.243Z,18.20
2023-05-10T13:04:20.293Z,18.02
2023-05-10T13:06:47.437Z,17.85
2023-05-10T13:09:14.468Z,18.70
2023-05-10T13:11:41.969Z,18.42
2023-05-10T13:14:09.296Z,18.73
2023-05-10T13:16:36.296Z,18.50
2023-05-10T13:19:04.423Z,17.88
2023-05-10T13:21:31.629Z,18.83
2023-05-10T13:23:59.051Z,18.90
2023-05-10T13:26:26.682Z,18.77
2023-05-10T13:28:53.784Z,20.17
2023-05-10T13:31:22.424Z,21.25
2023-05-10T13:33:49.467Z,22.08
2023-05-10T13:36:16.571Z,22.25
2023-05-10T13:38:43.558Z,23.30
2023-05-10T13:41:11.348Z,24.63
2023-05-10T13:43:38.406Z,23.35
2023-05-10T13:46:05.873Z,23.80
2023-05-10T13:48:33.095Z,23.73
2023-05-10T13:51:00.334Z,23.73
2023-05-10T13:53:27.409Z,24.25
2023-05-10T13:55:54.642Z,23.95
2023-05-10T13:58:21.788Z,24.80
2023-05-10T14:00:50.630Z,25.08
2023-05-10T14:03:18.273Z,23.23
2023-05-10T14:05:46.464Z,25.02
2023-05-10T14:08:14.373Z,25.55
2023-05-10T14:10:41.658Z,25.92
2023-05-10T14:13:09.055Z,26.45
2023-05-10T14:15:36.037Z,25.63
2023-05-10T14:18:03.459Z,25.10
2023-05-10T14:20:31.611Z,24.45
2023-05-10T14:22:58.820Z,29.25
2023-05-10T14:25:27.565Z,26.65
2023-05-10T14:27:55.835Z,25.88
2023-05-10T14:30:23.113Z,25.15
2023-05-10T14:32:50.565Z,25.35
2023-05-10T14:35:19.487Z,26.48
2023-05-10T14:37:46.945Z,25.92
2023-05-10T14:40:15.241Z,25.73
2023-05-10T14:42:44.393Z,26.45
2023-05-10T14:45:12.551Z,26.02
2023-05-10T14:47:39.726Z,25.02
2023-05-10T14:50:07.288Z,24.90
2023-05-10T14:52:34.527Z,25.95
2023-05-10T14:55:02.515Z,26.13
2023-05-10T14:57:30.822Z,76.38
2023-05-10T14:59:58.194Z,26.52
2023-05-10T15:02:25.763Z,24.85
2023-05-10T15:04:54.634Z,23.75
2023-05-10T15:07:23.693Z,23.88
2023-05-10T15:09:52.899Z,24.45
2023-05-10T15:12:20.196Z,24.60
2023-05-10T15:14:47.722Z,24.95
2023-05-10T15:17:14.690Z,25.25
2023-05-10T15:19:41.659Z,26.48
2023-05-10T15:22:08.731Z,26.95
2023-05-10T15:24:37.037Z,28.15
2023-05-10T15:27:04.119Z,27.40
2023-05-10T15:29:32.598Z,28.50
2023-05-10T15:31:59.599Z,25.50
2023-05-10T15:34:26.858Z,25.73
2023-05-10T15:36:53.987Z,25.48
2023-05-10T15:39:21.142Z,25.65
2023-05-10T15:41:48.352Z,25.88
2023-05-10T15:44:16.512Z,25.08
2023-05-10T15:46:43.577Z,25.05
2023-05-10T15:49:10.686Z,24.55
2023-05-10T15:51:37.982Z,32.88
2023-05-10T15:54:08.255Z,24.85
2023-05-10T15:56:35.942Z,26.05
2023-05-10T15:59:06.197Z,27.17
2023-05-10T16:01:33.369Z,27.85
2023-05-10T16:04:01.055Z,26.48
2023-05-10T16:06:28.077Z,27.55
2023-05-10T16:08:55.127Z,27.48
2023-05-10T16:11:22.430Z,27.15
2023-05-10T16:13:49.450Z,27.20
2023-05-10T16:16:16.571Z,26.60
2023-05-10T16:18:44.128Z,26.60
2023-05-10T16:21:11.560Z,27.38
2023-05-10T16:23:38.794Z,28.05
2023-05-10T16:26:07.663Z,27.08
2023-05-10T16:28:35.772Z,27.38
2023-05-10T16:31:03.586Z,27.08
2023-05-10T16:33:30.754Z,26.65
2023-05-10T16:35:58.173Z,26.90
2023-05-10T16:38:26.927Z,26.90
2023-05-10T16:40:53.961Z,27.27
2023-05-10T16:43:20.910Z,25.20
2023-05-10T16:45:47.914Z,24.42
2023-05-10T16:48:15.516Z,24.42
2023-05-10T16:50:46.190Z,23.92
2023-05-10T16:53:13.932Z,23.23
2023-05-10T16:55:41.200Z,22.75
2023-05-10T16:58:08.308Z,22.05
2023-05-10T17:00:36.664Z,21.88
2023-05-10T17:03:04.413Z,23.52
2023-05-10T17:05:31.514Z,23.85
2023-05-10T17:07:58.601Z,23.55
2023-05-10T17:10:25.622Z,23.13
2023-05-10T17:12:53.917Z,22.35
2023-05-10T17:15:21.217Z,22.75
2023-05-10T17:17:48.427Z,21.33
2023-05-10T17:20:15.520Z,20.55
2023-05-10T17:22:42.609Z,20.85
2023-05-10T17:25:10.131Z,21.65
2023-05-10T17:27:37.225Z,21.50
2023-05-10T17:30:04.591Z,22.73
2023-05-10T17:32:31.661Z,22.13
2023-05-10T17:34:58.715Z,21.95
2023-05-10T17:37:25.988Z,22.52
2023-05-10T17:39:53.047Z,23.15
2023-05-10T17:42:20.956Z,22.30
2023-05-10T17:44:48.241Z,23.23
2023-05-10T17:47:16.290Z,22.85
2023-05-10T17:49:43.328Z,22.95
2023-05-10T17:52:10.420Z,23.73
2023-05-10T17:54:37.366Z,25.95
2023-05-10T17:57:04.440Z,23.67
2023-05-10T17:59:31.501Z,23.52
2023-05-10T18:01:58.442Z,23.08
2023-05-10T18:04:26.158Z,23.50
2023-05-10T18:07:01.069Z,24.65
2023-05-10T18:09:30.098Z,25.05
2023-05-10T18:11:57.029Z,26.05
2023-05-10T18:14:38.938Z,24.88
2023-05-10T18:17:07.350Z,25.20
2023-05-10T18:19:34.764Z,25.55
2023-05-10T18:22:01.789Z,24.77
2023-05-10T18:24:38.486Z,25.65
2023-05-10T18:27:07.209Z,27.90
2023-05-10T18:29:34.294Z,27.23
2023-05-10T18:32:01.277Z,27.52
2023-05-10T18:34:28.994Z,27.00
2023-05-10T18:36:56.506Z,26.73
2023-05-10T18:39:24.412Z,26.65
2023-05-10T18:41:51.525Z,26.98
2023-05-10T18:44:19.226Z,26.60
2023-05-10T18:46:46.685Z,27.95
2023-05-10T18:49:13.703Z,28.23
2023-05-10T18:51:40.645Z,27.67
2023-05-10T18:54:07.756Z,31.50
2023-05-10T18:56:35.971Z,36.20
2023-05-10T18:59:03.857Z,32.78
2023-05-10T19:01:30.987Z,31.55
2023-05-10T19:03:58.248Z,34.30
2023-05-10T19:06:25.365Z,36.90
2023-05-10T19:08:52.702Z,35.05
2023-05-10T19:11:20.200Z,32.53
2023-05-10T19:13:47.423Z,34.70
2023-05-10T19:16:16.843Z,35.03
2023-05-10T19:18:45.886Z,40.63
2023-05-10T19:21:13.182Z,39.17
2023-05-10T19:23:41.795Z,38.55
2023-05-10T19:26:10.662Z,38.80
2023-05-10T19:28:37.829Z,35.40
2023-05-10T19:31:06.424Z,33.97
2023-05-10T19:33:33.790Z,36.13
2023-05-10T19:36:01.162Z,32.42
2023-05-10T19:38:30.399Z,33.15
2023-05-10T19:40:58.355Z,33.10
2023-05-10T19:43:28.537Z,33.17
2023-05-10T19:45:59.538Z,31.40
2023-05-10T19:48:26.937Z,32.42
2023-05-10T19:50:59.334Z,31.98
2023-05-10T19:53:28.079Z,32.92
2023-05-10T19:55:56.311Z,34.17
2023-05-10T19:58:23.878Z,35.80
2023-05-10T20:00:50.998Z,34.75
2023-05-10T20:03:18.026Z,36.35
2023-05-10T20:05:45.174Z,37.95
2023-05-10T20:08:12.202Z,39.83
2023-05-10T20:10:39.197Z,41.85
2023-05-10T20:13:06.318Z,36.47
2023-05-10T20:15:33.841Z,34.13
2023-05-10T20:18:00.962Z,39.05
2023-05-10T20:20:29.150Z,35.67
2023-05-10T20:22:56.634Z,45.55
2023-05-10T20:25:24.185Z,39.85
2023-05-10T20:27:51.337Z,38.13
2023-05-10T20:30:19.212Z,36.90
2023-05-10T20:32:46.539Z,36.97
2023-05-10T20:35:13.592Z,38.65
2023-05-10T20:37:41.026Z,43.60
2023-05-10T20:40:08.729Z,37.17
2023-05-10T20:42:35.978Z,39.25
2023-05-10T20:45:03.391Z,40.50
2023-05-10T20:47:30.477Z,40.25
2023-05-10T20:49:57.477Z,43.03
2023-05-10T20:52:25.672Z,42.25
2023-05-10T20:54:52.865Z,42.13
2023-05-10T20:57:20.451Z,46.03
2023-05-10T20:59:47.507Z,40.78
2023-05-10T21:02:14.447Z,40.50
2023-05-10T21:04:41.849Z,37.60
2023-05-10T21:07:08.900Z,41.30
2023-05-10T21:09:36.058Z,40.63
2023-05-10T21:12:03.571Z,41.75
2023-05-10T21:14:31.610Z,42.22
2023-05-10T21:16:58.506Z,42.10
2023-05-10T21:19:25.526Z,39.38
2023-05-10T21:21:52.645Z,39.92
2023-05-10T21:24:19.687Z,41.08
2023-05-10T21:26:46.657Z,39.40
2023-05-10T21:29:15.704Z,41.05
2023-05-10T21:31:43.768Z,46.92
2023-05-10T21:34:10.932Z,41.15
2023-05-10T21:36:37.977Z,39.58
2023-05-10T21:39:05.055Z,42.20
2023-05-10T21:41:32.304Z,43.17
2023-05-10T21:43:59.263Z,42.92
2023-05-10T21:46:26.487Z,40.25
2023-05-10T21:48:54.064Z,44.13
2023-05-10T21:51:22.076Z,39.53
2023-05-10T21:53:50.484Z,40.63
2023-05-10T21:56:17.973Z,41.97
2023-05-10T21:58:45.031Z,43.72
2023-05-10T22:01:12.395Z,43.65
2023-05-10T22:03:39.383Z,43.85
2023-05-10T22:06:06.678Z,41.63
2023-05-10T22:08:33.740Z,43.13
2023-05-10T22:11:01.076Z,43.30
2023-05-10T22:13:28.185Z,43.45
2023-05-10T22:15:55.191Z,40.13
2023-05-10T22:18:22.458Z,42.83
2023-05-10T22:20:49.477Z,42.78
2023-05-10T22:23:16.516Z,43.05
2023-05-10T22:25:43.491Z,43.30
2023-05-10T22:28:10.828Z,44.25
2023-05-10T22:30:38.105Z,42.92
2023-05-10T22:33:05.139Z,47.25
2023-05-10T22:35:32.169Z,41.17
2023-05-10T22:37:59.181Z,45.47
2023-05-10T22:40:26.239Z,41.80
2023-05-10T22:42:53.272Z,47.35
2023-05-10T22:45:20.474Z,44.65
2023-05-10T22:47:47.556Z,41.50
2023-05-10T22:50:15.231Z,42.38
2023-05-10T22:52:42.261Z,41.92
2023-05-10T22:55:09.878Z,41.65
2023-05-10T22:57:37.156Z,43.42
2023-05-10T23:00:05.408Z,40.53
2023-05-10T23:02:32.789Z,40.15
2023-05-10T23:04:59.918Z,39.95
2023-05-10T23:07:27.089Z,41.60
2023-05-10T23:09:54.189Z,40.78
2023-05-10T23:12:22.593Z,40.72
2023-05-10T23:14:49.789Z,38.88
2023-05-10T23:17:16.803Z,40.40
2023-05-10T23:19:43.708Z,39.35
2023-05-10T23:22:10.709Z,39.95
2023-05-10T23:24:38.383Z,39.85
2023-05-10T23:27:07.318Z,42.40
2023-05-10T23:29:35.367Z,38.97
2023-05-10T23:32:02.417Z,42.33
2023-05-10T23:34:29.476Z,38.67
2023-05-10T23:36:56.991Z,40.72
2023-05-10T23:39:24.022Z,39.00
2023-05-10T23:41:52.255Z,41.45
2023-05-10T23:44:19.258Z,40.33
2023-05-10T23:46:46.222Z,39.38
2023-05-10T23:49:13.219Z,39.97
2023-05-10T23:51:40.229Z,41.47
2023-05-10T23:54:07.228Z,38.97
2023-05-10T23:56:34.386Z,39.10
2023-05-10T23:59:01.428Z,39.13
